Hlavní strana
METAR-TAF:

METAR-TAF

Letiště :

Pula, Chorvatsko

zeměpisná šířka: 44-54N, zeměpisná délka: 013-55E, výška: 63 m

Aktuální stav počasí

Zpráva byla vytvořena před 30 minutami, v 20:30 UTC
Severoseverovýchodní vítr 8 kt
Teplota 26°C
Vlhkost vzduchu 54%
Tlak 1016 hPa
Viditelnost 10 km a více
Žádná oblačnost pod 1500 m, nevyskytují se cumulonimby.

METAR: LDPL 192030Z 03008KT CAVOK 26/16 Q1016 NOSIG

Čas: 23:00 (21:00 UTC)

Předpověď počasí

Zpráva byla vytvořena před 3 hodinami a 35 minutami, v 17:25 UTC
Předpověď platná od 19 v 18 UTC do 20 v 18 UTC
Východoseverovýchodní vítr 10 kt
Viditelnost 10 km a více
Žádná oblačnost pod 1500 m, nevyskytují se cumulonimby.
Pravděpodobnost 40% :
Dočasný
od 20 v 12 UTC do 20 v 18 UTC
Západní vítr 8 kt

TAF: LDPL 191725Z 1918/2018 07010KT CAVOK TX33/2012Z TN23/2003Z PROB40 TEMPO 2012/2018 28008KT

Stav a předpovědi počasí z více než 4 000 letišť (zprávy METAR a TAF).

Červené a žluté tečky na mapě představují dostupné meteorologické stanice.

Když kurzor umístíte na tečku, zobrazí se název stanice.

Pak kliknutím zobrazíte stav a předpověď počasí.

Chcete-li změnit mapu, kliknutím na zelené tlačítko se znaménkem +mapu přiblížíte, kliknutím na zelené tlačítko se znaménkem – mapu oddálíte a kliknutím na zelené šipky přejdete na sousední mapy.


METAR-TAF: